createdAt,value
2023-05-14T00:00:27.743Z,14.04
2023-05-14T00:03:16.181Z,13.99
2023-05-14T00:05:49.709Z,13.95
2023-05-14T00:08:19.501Z,13.93
2023-05-14T00:10:50.345Z,13.95
2023-05-14T00:13:30.928Z,14.04
2023-05-14T00:16:02.876Z,14.13
2023-05-14T00:18:35.070Z,14.20
2023-05-14T00:21:21.997Z,14.25
2023-05-14T00:24:08.621Z,14.30
2023-05-14T00:26:37.608Z,14.32
2023-05-14T00:29:11.640Z,14.30
2023-05-14T00:34:17.015Z,14.16
2023-05-14T00:36:46.854Z,14.15
2023-05-14T00:39:30.509Z,14.15
2023-05-14T00:42:00.017Z,14.12
2023-05-14T00:44:30.004Z,14.11
2023-05-14T00:47:08.406Z,14.09
2023-05-14T00:49:43.434Z,14.04
2023-05-14T00:52:12.531Z,14.02
2023-05-14T00:54:50.179Z,13.99
2023-05-14T00:57:19.324Z,13.98
2023-05-14T00:59:56.767Z,13.94
2023-05-14T01:02:38.008Z,13.91
2023-05-14T01:05:07.450Z,13.91
2023-05-14T01:07:46.355Z,13.91
2023-05-14T01:10:26.342Z,13.88
2023-05-14T01:13:20.319Z,13.87
2023-05-14T01:15:51.270Z,13.83
2023-05-14T01:18:46.253Z,13.79
2023-05-14T01:21:39.338Z,13.79
2023-05-14T01:24:27.378Z,13.78
2023-05-14T01:27:13.687Z,13.76
2023-05-14T01:30:12.192Z,13.72
2023-05-14T01:32:52.315Z,13.67
2023-05-14T01:35:34.531Z,13.66
2023-05-14T01:38:08.388Z,13.63
2023-05-14T01:40:49.651Z,13.66
2023-05-14T01:43:23.727Z,13.66
2023-05-14T01:45:52.867Z,13.64
2023-05-14T01:48:23.996Z,13.59
2023-05-14T01:50:53.397Z,13.55
2023-05-14T01:53:23.193Z,13.50
2023-05-14T01:55:51.322Z,13.48
2023-05-14T01:58:22.134Z,13.46
2023-05-14T02:00:50.409Z,13.45
2023-05-14T02:03:21.158Z,13.42
2023-05-14T02:05:51.553Z,13.37
2023-05-14T02:08:20.605Z,13.35
2023-05-14T02:10:51.294Z,13.32
2023-05-14T02:13:23.117Z,13.31
2023-05-14T02:15:51.553Z,13.30
2023-05-14T02:18:20.053Z,13.26
2023-05-14T02:20:50.548Z,13.23
2023-05-14T02:23:22.043Z,13.21
2023-05-14T02:25:55.902Z,13.21
2023-05-14T02:28:30.112Z,13.20
2023-05-14T02:31:07.825Z,13.19
2023-05-14T02:33:38.495Z,13.17
2023-05-14T02:36:12.860Z,13.18
2023-05-14T02:38:44.760Z,13.20
2023-05-14T02:41:18.646Z,13.19
2023-05-14T02:44:05.987Z,13.17
2023-05-14T02:46:39.468Z,13.15
2023-05-14T02:49:15.513Z,13.11
2023-05-14T02:51:44.644Z,13.08
2023-05-14T02:54:13.546Z,13.06
2023-05-14T02:56:41.962Z,13.07
2023-05-14T02:59:10.792Z,13.09
2023-05-14T03:01:39.537Z,13.10
2023-05-14T03:04:08.115Z,13.12
2023-05-14T03:06:44.962Z,13.13
2023-05-14T03:09:13.785Z,13.15
2023-05-14T03:11:42.081Z,13.17
2023-05-14T03:14:10.739Z,13.19
2023-05-14T03:16:41.752Z,13.20
2023-05-14T03:19:10.358Z,13.21
2023-05-14T03:21:41.516Z,13.21
2023-05-14T03:24:10.902Z,13.22
2023-05-14T03:26:39.407Z,13.22
2023-05-14T03:29:10.244Z,13.22
2023-05-14T03:31:38.603Z,13.23
2023-05-14T03:34:08.440Z,13.25
2023-05-14T03:36:39.256Z,13.26
2023-05-14T03:39:09.069Z,13.31
2023-05-14T03:41:38.983Z,13.35
2023-05-14T03:44:08.513Z,13.36
2023-05-14T03:46:37.576Z,13.36
2023-05-14T03:49:07.136Z,13.34
2023-05-14T03:51:37.097Z,13.32
2023-05-14T03:54:06.232Z,13.27
2023-05-14T03:56:34.483Z,13.26
2023-05-14T03:59:04.490Z,13.23
2023-05-14T04:01:34.187Z,13.20
2023-05-14T04:04:02.509Z,13.17
2023-05-14T04:06:31.203Z,13.18
2023-05-14T04:09:01.481Z,13.19
2023-05-14T04:11:29.894Z,13.21
2023-05-14T04:14:02.983Z,13.25
2023-05-14T04:16:31.694Z,13.31
2023-05-14T04:19:01.084Z,13.40
2023-05-14T04:21:29.309Z,13.49
2023-05-14T04:23:57.993Z,13.57
2023-05-14T04:26:27.819Z,13.64
2023-05-14T04:29:02.353Z,13.70
2023-05-14T04:31:32.054Z,13.78
2023-05-14T04:34:00.303Z,13.87
2023-05-14T04:36:29.346Z,13.92
2023-05-14T04:38:57.577Z,13.96
2023-05-14T04:41:36.409Z,13.99
2023-05-14T04:44:04.592Z,14.01
2023-05-14T04:46:33.327Z,14.01
2023-05-14T04:49:02.672Z,14.02
2023-05-14T04:51:31.138Z,14.04
2023-05-14T04:53:59.445Z,14.08
2023-05-14T04:56:27.704Z,14.13
2023-05-14T04:58:56.037Z,14.18
2023-05-14T05:01:24.908Z,14.21
2023-05-14T05:03:53.220Z,14.27
2023-05-14T05:06:21.927Z,14.34
2023-05-14T05:08:51.014Z,14.41
2023-05-14T05:11:22.986Z,14.47
2023-05-14T05:13:51.988Z,14.53
2023-05-14T05:16:20.325Z,14.61
2023-05-14T05:18:50.356Z,14.67
2023-05-14T05:21:19.922Z,14.75
2023-05-14T05:23:48.781Z,14.83
2023-05-14T05:26:17.645Z,14.91
2023-05-14T05:28:46.249Z,14.97
2023-05-14T05:31:16.547Z,15.03
2023-05-14T05:33:46.201Z,15.11
2023-05-14T05:36:15.518Z,15.22
2023-05-14T05:38:44.170Z,15.30
2023-05-14T05:41:17.786Z,15.38
2023-05-14T05:43:49.142Z,15.46
2023-05-14T05:46:19.702Z,15.52
2023-05-14T05:48:50.576Z,15.56
2023-05-14T05:51:24.255Z,15.59
2023-05-14T05:53:52.781Z,15.66
2023-05-14T05:56:21.553Z,15.72
2023-05-14T05:58:54.160Z,15.76
2023-05-14T06:01:26.610Z,15.80
2023-05-14T06:03:54.980Z,15.84
2023-05-14T06:06:23.380Z,15.88
2023-05-14T06:08:51.498Z,15.95
2023-05-14T06:11:19.644Z,16.03
2023-05-14T06:13:47.782Z,16.10
2023-05-14T06:16:15.972Z,16.19
2023-05-14T06:18:44.352Z,16.27
2023-05-14T06:21:12.584Z,16.36
2023-05-14T06:23:41.229Z,16.44
2023-05-14T06:26:12.337Z,16.51
2023-05-14T06:28:40.913Z,16.59
2023-05-14T06:31:09.923Z,16.67
2023-05-14T06:33:39.529Z,16.75
2023-05-14T06:36:11.083Z,16.83
2023-05-14T06:38:40.781Z,16.90
2023-05-14T06:41:10.322Z,17.00
2023-05-14T06:43:40.067Z,17.10
2023-05-14T06:46:09.288Z,17.22
2023-05-14T06:48:37.733Z,17.33
2023-05-14T06:51:10.903Z,17.45
2023-05-14T06:53:42.585Z,17.59
2023-05-14T06:56:14.850Z,17.72
2023-05-14T06:58:43.998Z,17.85
2023-05-14T07:01:12.390Z,17.97
2023-05-14T07:03:42.343Z,18.06
2023-05-14T07:06:23.591Z,18.15
2023-05-14T07:08:59.478Z,18.24
2023-05-14T07:11:41.767Z,18.32
2023-05-14T07:14:26.773Z,18.41
2023-05-14T07:17:01.151Z,18.47
2023-05-14T07:19:34.692Z,18.54
2023-05-14T07:22:05.340Z,18.56
2023-05-14T07:24:42.506Z,18.63
2023-05-14T07:27:13.762Z,18.70
2023-05-14T07:29:53.527Z,18.77
2023-05-14T07:32:26.764Z,18.88
2023-05-14T07:34:57.424Z,19.01
2023-05-14T07:37:28.742Z,19.11
2023-05-14T07:39:58.143Z,19.19
2023-05-14T07:42:36.034Z,19.29
2023-05-14T07:45:10.904Z,19.36
2023-05-14T07:47:46.948Z,19.45
2023-05-14T07:50:33.523Z,19.54
2023-05-14T07:53:23.568Z,19.65
2023-05-14T07:56:29.169Z,19.74
2023-05-14T07:59:13.758Z,19.84
2023-05-14T08:01:45.696Z,19.94
2023-05-14T08:04:15.916Z,20.03
2023-05-14T08:06:45.957Z,20.10
2023-05-14T08:09:18.233Z,20.19
2023-05-14T08:11:47.316Z,20.27
2023-05-14T08:14:27.704Z,20.34
2023-05-14T08:17:23.389Z,20.43
2023-05-14T08:19:53.978Z,20.50
2023-05-14T08:22:22.575Z,20.54
2023-05-14T08:24:51.106Z,20.57
2023-05-14T08:27:20.249Z,20.61
2023-05-14T08:29:49.560Z,20.64
2023-05-14T08:32:23.291Z,20.67
2023-05-14T08:34:52.863Z,20.67
2023-05-14T08:37:21.389Z,20.70
2023-05-14T08:39:50.689Z,20.73
2023-05-14T08:42:26.455Z,20.79
2023-05-14T08:45:00.500Z,20.85
2023-05-14T08:47:35.927Z,20.90
2023-05-14T08:50:05.014Z,20.96
2023-05-14T08:52:32.967Z,21.05
2023-05-14T08:55:03.872Z,21.15
2023-05-14T08:57:32.881Z,21.21
2023-05-14T09:00:01.551Z,21.25
2023-05-14T09:02:30.715Z,21.30
2023-05-14T09:05:09.161Z,21.34
2023-05-14T09:07:37.207Z,21.39
2023-05-14T09:10:08.290Z,21.47
2023-05-14T09:12:45.637Z,21.56
2023-05-14T09:15:13.881Z,21.64
2023-05-14T09:17:42.969Z,21.74
2023-05-14T09:20:12.796Z,21.82
2023-05-14T09:22:42.196Z,21.90
2023-05-14T09:25:13.914Z,21.96
2023-05-14T09:27:49.686Z,22.00
2023-05-14T09:30:18.685Z,22.06
2023-05-14T09:32:49.437Z,22.10
2023-05-14T09:35:26.013Z,22.16
2023-05-14T09:37:57.885Z,22.16
2023-05-14T09:40:29.465Z,22.13
2023-05-14T09:43:01.387Z,22.15
2023-05-14T09:45:30.910Z,22.21
2023-05-14T09:48:04.051Z,22.27
2023-05-14T09:50:41.553Z,22.29
2023-05-14T09:53:12.316Z,22.31
2023-05-14T09:55:41.416Z,22.33
2023-05-14T09:58:18.661Z,22.37
2023-05-14T10:00:49.343Z,22.43
2023-05-14T10:03:29.067Z,22.46
2023-05-14T10:06:01.389Z,22.49
2023-05-14T10:08:37.154Z,22.53
2023-05-14T10:11:10.697Z,22.58
2023-05-14T10:14:07.389Z,22.62
2023-05-14T10:16:41.162Z,22.67
2023-05-14T10:19:15.809Z,22.69
2023-05-14T10:21:57.758Z,22.72
2023-05-14T10:24:41.094Z,22.73
2023-05-14T10:27:10.666Z,22.79
2023-05-14T10:29:39.782Z,22.83
2023-05-14T10:32:26.608Z,22.81
2023-05-14T10:34:58.342Z,22.87
2023-05-14T10:37:28.254Z,22.91
2023-05-14T10:39:58.531Z,22.97
2023-05-14T10:42:29.307Z,23.00
2023-05-14T10:44:58.997Z,23.02
2023-05-14T10:47:34.745Z,23.05
2023-05-14T10:50:04.847Z,23.08
2023-05-14T10:52:34.587Z,23.15
2023-05-14T10:55:07.115Z,23.21
2023-05-14T10:57:39.224Z,23.27
2023-05-14T11:00:09.698Z,23.33
2023-05-14T11:02:40.650Z,23.40
2023-05-14T11:05:10.922Z,23.46
2023-05-14T11:07:44.116Z,23.47
2023-05-14T11:10:16.521Z,23.49
2023-05-14T11:13:03.283Z,23.54
2023-05-14T11:15:32.473Z,23.59
2023-05-14T11:18:10.738Z,23.63
2023-05-14T11:20:39.589Z,23.65
2023-05-14T11:23:11.517Z,23.66
2023-05-14T11:25:41.255Z,23.70
2023-05-14T11:28:10.335Z,23.74
2023-05-14T11:30:41.545Z,23.77
2023-05-14T11:33:09.530Z,23.78
2023-05-14T11:35:42.356Z,23.79
2023-05-14T11:38:17.496Z,23.84
2023-05-14T11:40:58.696Z,23.91
2023-05-14T11:43:30.202Z,23.95
2023-05-14T11:46:00.143Z,24.00
2023-05-14T11:48:30.555Z,24.06
2023-05-14T11:51:04.957Z,24.17
2023-05-14T11:53:34.691Z,24.26
2023-05-14T11:56:02.993Z,24.36
2023-05-14T11:58:33.436Z,24.48
2023-05-14T12:01:05.231Z,24.61
2023-05-14T12:03:33.606Z,24.72
2023-05-14T12:06:06.543Z,24.79
2023-05-14T12:08:37.010Z,24.85
2023-05-14T12:11:06.346Z,24.91
2023-05-14T12:13:36.598Z,25.01
2023-05-14T12:21:32.401Z,25.33
2023-05-14T12:24:00.793Z,25.45
2023-05-14T12:26:33.965Z,25.50
2023-05-14T12:29:04.563Z,25.56
2023-05-14T12:31:33.342Z,25.53
2023-05-14T12:34:11.393Z,25.40
2023-05-14T12:36:43.792Z,25.25
2023-05-14T12:39:12.187Z,25.24
2023-05-14T12:41:40.676Z,25.27
2023-05-14T12:44:11.756Z,25.31
2023-05-14T12:46:45.811Z,25.38
2023-05-14T12:49:14.783Z,25.45
2023-05-14T12:51:51.287Z,25.51
2023-05-14T12:54:27.363Z,25.61
2023-05-14T12:56:59.502Z,25.72
2023-05-14T12:59:31.114Z,25.83
2023-05-14T13:02:00.349Z,25.87
2023-05-14T13:04:30.475Z,25.99
2023-05-14T13:07:01.372Z,26.17
2023-05-14T13:09:30.959Z,26.42
2023-05-14T13:12:03.177Z,26.73
2023-05-14T13:14:31.737Z,26.93
2023-05-14T13:17:05.053Z,27.03
2023-05-14T13:19:36.049Z,27.01
2023-05-14T13:22:04.755Z,26.95
2023-05-14T13:24:35.915Z,27.06
2023-05-14T13:27:09.731Z,27.23
2023-05-14T13:29:43.692Z,27.28
2023-05-14T13:32:12.081Z,27.28
2023-05-14T13:34:42.152Z,27.25
2023-05-14T13:37:13.372Z,27.24
2023-05-14T13:39:43.253Z,27.22
2023-05-14T13:42:12.651Z,27.23
2023-05-14T13:44:41.844Z,27.21
2023-05-14T13:47:16.849Z,27.17
2023-05-14T13:49:46.281Z,27.07
2023-05-14T13:52:16.379Z,26.99
2023-05-14T13:54:44.786Z,27.01
2023-05-14T13:57:17.680Z,27.08
2023-05-14T13:59:53.405Z,27.29
2023-05-14T14:02:24.823Z,27.47
2023-05-14T14:04:53.570Z,27.69
2023-05-14T14:07:22.316Z,27.89
2023-05-14T14:09:51.193Z,27.98
2023-05-14T14:12:19.970Z,28.06
2023-05-14T14:14:48.424Z,28.23
2023-05-14T14:17:16.621Z,28.39
2023-05-14T14:19:45.189Z,28.28
2023-05-14T14:48:52.703Z,26.97
2023-05-14T14:51:21.376Z,26.87
2023-05-14T14:53:57.678Z,26.78
2023-05-14T14:56:30.905Z,26.61
2023-05-14T14:59:02.836Z,26.41
2023-05-14T15:01:36.620Z,26.17
2023-05-14T15:04:07.851Z,26.03
2023-05-14T15:06:36.687Z,25.91
2023-05-14T15:09:10.705Z,25.78
2023-05-14T15:11:39.858Z,25.66
2023-05-14T15:14:07.901Z,25.56
2023-05-14T15:16:40.100Z,25.48
2023-05-14T15:19:08.578Z,25.36
2023-05-14T15:21:37.029Z,25.30
2023-05-14T15:24:06.784Z,25.20
2023-05-14T15:26:35.976Z,25.02
2023-05-14T15:29:05.612Z,24.83
2023-05-14T15:31:35.055Z,24.71
2023-05-14T15:34:05.885Z,24.61
2023-05-14T15:36:35.487Z,24.58
2023-05-14T15:39:05.763Z,24.56
2023-05-14T15:41:35.419Z,24.50
2023-05-14T15:44:07.947Z,24.42
2023-05-14T15:46:37.370Z,24.31
2023-05-14T15:49:06.414Z,24.20
2023-05-14T15:51:35.722Z,24.16
2023-05-14T15:54:03.890Z,24.09
2023-05-14T15:56:33.221Z,24.03
2023-05-14T15:59:01.490Z,23.98
2023-05-14T16:01:30.414Z,23.89
2023-05-14T16:03:59.156Z,23.82
2023-05-14T16:06:27.177Z,23.77
2023-05-14T16:08:56.323Z,23.72
2023-05-14T16:11:25.861Z,23.64
2023-05-14T16:13:55.827Z,23.62
2023-05-14T16:16:25.042Z,23.56
2023-05-14T16:18:56.913Z,23.40
2023-05-14T16:21:27.153Z,23.29
2023-05-14T16:23:59.357Z,23.23
2023-05-14T16:26:31.205Z,23.14
2023-05-14T16:29:01.370Z,23.06
2023-05-14T16:31:30.958Z,22.97
2023-05-14T16:33:59.441Z,22.90
2023-05-14T16:36:27.671Z,22.85
2023-05-14T16:39:06.657Z,22.78
2023-05-14T16:41:36.157Z,22.69
2023-05-14T16:44:05.152Z,22.62
2023-05-14T16:46:33.872Z,22.54
2023-05-14T16:49:02.284Z,22.45
2023-05-14T16:51:30.623Z,22.39
2023-05-14T16:53:58.772Z,22.35
2023-05-14T16:56:29.802Z,22.31
2023-05-14T16:58:58.186Z,22.26
2023-05-14T17:01:26.428Z,22.20
2023-05-14T17:03:55.121Z,22.13
2023-05-14T17:06:24.464Z,22.06
2023-05-14T17:08:52.569Z,22.02
2023-05-14T17:11:21.762Z,21.96
2023-05-14T17:14:03.338Z,21.90
2023-05-14T17:16:31.537Z,21.80
2023-05-14T17:18:59.947Z,21.73
2023-05-14T17:21:27.929Z,21.67
2023-05-14T17:23:56.601Z,21.59
2023-05-14T17:26:25.760Z,21.51
2023-05-14T17:28:57.968Z,21.44
2023-05-14T17:31:26.809Z,21.37
2023-05-14T17:33:55.194Z,21.29
2023-05-14T17:36:24.559Z,21.20
2023-05-14T17:38:56.597Z,21.11
2023-05-14T17:41:25.095Z,21.05
2023-05-14T17:43:55.240Z,20.98
2023-05-14T17:46:23.346Z,20.93
2023-05-14T17:49:00.582Z,20.88
2023-05-14T17:51:35.099Z,20.82
2023-05-14T17:54:23.640Z,20.80
2023-05-14T17:56:53.692Z,20.77
2023-05-14T17:59:30.997Z,20.75
2023-05-14T18:01:59.412Z,20.71
2023-05-14T18:04:28.145Z,20.68
2023-05-14T18:06:57.628Z,20.62
2023-05-14T18:09:27.650Z,20.56
2023-05-14T18:11:56.933Z,20.50
2023-05-14T18:14:25.363Z,20.43
2023-05-14T18:17:03.896Z,20.38
2023-05-14T18:19:42.255Z,20.32
2023-05-14T18:22:13.399Z,20.28
2023-05-14T18:24:43.629Z,20.24
2023-05-14T18:27:12.357Z,20.21
2023-05-14T18:29:52.020Z,20.17
2023-05-14T18:32:24.116Z,20.11
2023-05-14T18:34:52.639Z,20.06
2023-05-14T18:37:21.773Z,20.01
2023-05-14T18:39:49.806Z,19.97
2023-05-14T18:42:19.355Z,19.93
2023-05-14T18:44:47.695Z,19.88
2023-05-14T18:47:17.040Z,19.86
2023-05-14T18:49:46.654Z,19.84
2023-05-14T18:52:15.594Z,19.77
2023-05-14T18:54:43.913Z,19.73
2023-05-14T18:57:23.372Z,19.70
2023-05-14T18:59:51.578Z,19.66
2023-05-14T19:02:20.748Z,19.59
2023-05-14T19:04:52.706Z,19.56
2023-05-14T19:07:21.557Z,19.52
2023-05-14T19:09:50.253Z,19.48
2023-05-14T19:12:18.141Z,19.46
2023-05-14T19:14:47.058Z,19.41
2023-05-14T19:17:20.584Z,19.32
2023-05-14T19:19:50.937Z,19.24
2023-05-14T19:22:19.736Z,19.20
2023-05-14T19:27:17.843Z,19.11
2023-05-14T19:29:45.822Z,19.08
2023-05-14T19:32:20.859Z,19.01
2023-05-14T19:34:50.882Z,18.97
2023-05-14T19:37:20.767Z,18.91
2023-05-14T19:39:48.786Z,18.86
2023-05-14T19:42:21.544Z,18.81
2023-05-14T19:44:49.829Z,18.76
2023-05-14T19:47:18.720Z,18.73
2023-05-14T19:49:49.534Z,18.69
2023-05-14T19:52:24.802Z,18.61
2023-05-14T19:54:53.656Z,18.56
2023-05-14T19:57:23.203Z,18.52
2023-05-14T19:59:51.213Z,18.48
2023-05-14T20:02:20.984Z,18.44
2023-05-14T20:04:49.080Z,18.40
2023-05-14T20:07:17.291Z,18.35
2023-05-14T20:09:46.891Z,18.31
2023-05-14T20:12:16.220Z,18.27
2023-05-14T20:14:45.520Z,18.22
2023-05-14T20:17:14.544Z,18.16
2023-05-14T20:19:43.419Z,18.13
2023-05-14T20:22:12.687Z,18.12
2023-05-14T20:24:45.394Z,18.07
2023-05-14T20:27:15.159Z,18.00
2023-05-14T20:29:47.736Z,17.93
2023-05-14T20:32:17.306Z,17.85
2023-05-14T20:34:46.938Z,17.79
2023-05-14T20:37:17.925Z,17.76
2023-05-14T20:39:49.539Z,17.72
2023-05-14T20:42:18.227Z,17.70
2023-05-14T20:44:54.862Z,17.68
2023-05-14T20:47:26.010Z,17.63
2023-05-14T20:49:58.533Z,17.60
2023-05-14T20:52:37.832Z,17.55
2023-05-14T20:55:07.926Z,17.49
2023-05-14T20:57:37.878Z,17.45
2023-05-14T21:00:09.938Z,17.40
2023-05-14T21:02:38.721Z,17.35
2023-05-14T21:05:07.967Z,17.32
2023-05-14T21:07:36.775Z,17.30
2023-05-14T21:10:05.245Z,17.26
2023-05-14T21:12:33.602Z,17.23
2023-05-14T21:15:02.111Z,17.20
2023-05-14T21:17:30.280Z,17.17
2023-05-14T21:19:58.401Z,17.15
2023-05-14T21:22:26.493Z,17.12
2023-05-14T21:24:54.705Z,17.10
2023-05-14T21:27:23.107Z,17.06
2023-05-14T21:29:51.144Z,17.00
2023-05-14T21:32:21.558Z,16.95
2023-05-14T21:34:50.323Z,16.92
2023-05-14T21:37:19.501Z,16.90
2023-05-14T21:39:48.499Z,16.88
2023-05-14T21:42:19.136Z,16.85
2023-05-14T21:44:49.462Z,16.82
2023-05-14T21:47:19.983Z,16.80
2023-05-14T21:49:51.060Z,16.76
2023-05-14T21:52:21.356Z,16.74
2023-05-14T21:54:51.039Z,16.72
2023-05-14T21:57:20.573Z,16.69
2023-05-14T21:59:50.974Z,16.65
2023-05-14T22:02:20.545Z,16.63
2023-05-14T22:04:50.703Z,16.63
2023-05-14T22:07:20.825Z,16.59
2023-05-14T22:09:49.751Z,16.55
2023-05-14T22:12:19.210Z,16.50
2023-05-14T22:14:48.679Z,16.48
2023-05-14T22:17:17.405Z,16.46
2023-05-14T22:19:46.437Z,16.43
2023-05-14T22:22:14.798Z,16.43
2023-05-14T22:24:45.994Z,16.43
2023-05-14T22:27:20.996Z,16.40
2023-05-14T22:29:54.654Z,16.37
2023-05-14T22:32:27.365Z,16.34
2023-05-14T22:35:04.140Z,16.31
2023-05-14T22:37:37.626Z,16.30
2023-05-14T22:40:08.762Z,16.28
2023-05-14T22:42:39.979Z,16.25
2023-05-14T22:45:13.738Z,16.21
2023-05-14T22:47:49.043Z,16.18
2023-05-14T22:50:23.365Z,16.15
2023-05-14T22:53:03.563Z,16.14
2023-05-14T22:55:33.325Z,16.12
2023-05-14T22:58:06.333Z,16.09
2023-05-14T23:00:36.814Z,16.02
2023-05-14T23:03:11.451Z,15.98
2023-05-14T23:05:40.761Z,15.97
2023-05-14T23:08:10.167Z,15.96
2023-05-14T23:10:40.395Z,15.95
2023-05-14T23:13:09.822Z,15.90
2023-05-14T23:15:41.964Z,15.87
2023-05-14T23:18:15.140Z,15.84
2023-05-14T23:20:47.161Z,15.82
2023-05-14T23:23:21.983Z,15.80
2023-05-14T23:25:58.054Z,15.80
2023-05-14T23:28:27.158Z,15.79
2023-05-14T23:31:01.435Z,15.75
2023-05-14T23:33:36.795Z,15.74
2023-05-14T23:36:21.186Z,15.74
2023-05-14T23:38:51.752Z,15.74
2023-05-14T23:41:29.590Z,15.75
2023-05-14T23:43:58.931Z,15.75
2023-05-14T23:46:42.155Z,15.74
2023-05-14T23:49:13.917Z,15.73
2023-05-14T23:51:50.025Z,15.71
2023-05-14T23:54:36.788Z,15.69
2023-05-14T23:57:10.538Z,15.64
2023-05-14T23:59:39.690Z,15.63
